sensor_id;sensor_type;location;lat;lon;timestamp;temperature;humidity
12436;DHT22;6282;51.440;6.938;2022-08-06T00:02:15;13.40;99.90
12436;DHT22;6282;51.440;6.938;2022-08-06T00:04:44;13.60;99.90
12436;DHT22;6282;51.440;6.938;2022-08-06T00:07:12;13.50;99.90
12436;DHT22;6282;51.440;6.938;2022-08-06T00:09:39;13.50;99.90
12436;DHT22;6282;51.440;6.938;2022-08-06T00:12:06;13.30;99.90
12436;DHT22;6282;51.440;6.938;2022-08-06T00:14:34;13.40;99.90
12436;DHT22;6282;51.440;6.938;2022-08-06T00:17:01;13.20;99.90
12436;DHT22;6282;51.440;6.938;2022-08-06T00:19:28;13.50;99.90
12436;DHT22;6282;51.440;6.938;2022-08-06T00:21:55;13.30;99.90
12436;DHT22;6282;51.440;6.938;2022-08-06T00:24:23;13.20;99.90
12436;DHT22;6282;51.440;6.938;2022-08-06T00:26:50;13.10;99.90
12436;DHT22;6282;51.440;6.938;2022-08-06T00:29:17;13.10;99.90
12436;DHT22;6282;51.440;6.938;2022-08-06T00:31:44;13.00;99.90
12436;DHT22;6282;51.440;6.938;2022-08-06T00:34:11;13.00;99.90
12436;DHT22;6282;51.440;6.938;2022-08-06T00:36:38;13.00;99.90
12436;DHT22;6282;51.440;6.938;2022-08-06T00:39:06;13.00;99.90
12436;DHT22;6282;51.440;6.938;2022-08-06T00:41:35;13.10;99.90
12436;DHT22;6282;51.440;6.938;2022-08-06T00:44:03;13.00;99.90
12436;DHT22;6282;51.440;6.938;2022-08-06T00:46:30;13.10;99.90
12436;DHT22;6282;51.440;6.938;2022-08-06T00:48:57;12.90;99.90
12436;DHT22;6282;51.440;6.938;2022-08-06T00:51:24;12.80;99.90
12436;DHT22;6282;51.440;6.938;2022-08-06T00:53:51;12.80;99.90
12436;DHT22;6282;51.440;6.938;2022-08-06T00:56:19;12.80;99.90
12436;DHT22;6282;51.440;6.938;2022-08-06T00:58:47;12.80;99.90
12436;DHT22;6282;51.440;6.938;2022-08-06T01:01:14;12.80;99.90
12436;DHT22;6282;51.440;6.938;2022-08-06T01:03:41;12.80;99.90
12436;DHT22;6282;51.440;6.938;2022-08-06T01:06:08;12.70;99.90
12436;DHT22;6282;51.440;6.938;2022-08-06T01:08:34;12.60;99.90
12436;DHT22;6282;51.440;6.938;2022-08-06T01:11:01;12.70;99.90
12436;DHT22;6282;51.440;6.938;2022-08-06T01:13:28;12.60;99.90
12436;DHT22;6282;51.440;6.938;2022-08-06T01:16:12;12.70;99.90
12436;DHT22;6282;51.440;6.938;2022-08-06T01:18:50;12.70;99.90
12436;DHT22;6282;51.440;6.938;2022-08-06T01:21:45;12.50;99.90
12436;DHT22;6282;51.440;6.938;2022-08-06T01:24:33;12.30;99.90
12436;DHT22;6282;51.440;6.938;2022-08-06T01:30:12;12.40;99.90
12436;DHT22;6282;51.440;6.938;2022-08-06T01:32:45;12.50;99.90
12436;DHT22;6282;51.440;6.938;2022-08-06T01:35:17;12.40;99.90
12436;DHT22;6282;51.440;6.938;2022-08-06T01:37:49;12.40;99.90
12436;DHT22;6282;51.440;6.938;2022-08-06T01:40:21;12.20;99.90
12436;DHT22;6282;51.440;6.938;2022-08-06T01:42:51;12.20;99.90
12436;DHT22;6282;51.440;6.938;2022-08-06T01:45:22;12.50;99.90
12436;DHT22;6282;51.440;6.938;2022-08-06T01:47:52;12.30;99.90
12436;DHT22;6282;51.440;6.938;2022-08-06T01:50:22;12.30;99.90
12436;DHT22;6282;51.440;6.938;2022-08-06T01:52:51;12.30;99.90
12436;DHT22;6282;51.440;6.938;2022-08-06T01:55:20;12.20;99.90
12436;DHT22;6282;51.440;6.938;2022-08-06T01:57:52;12.10;99.90
12436;DHT22;6282;51.440;6.938;2022-08-06T02:00:19;12.10;99.90
12436;DHT22;6282;51.440;6.938;2022-08-06T02:02:48;12.10;99.90
12436;DHT22;6282;51.440;6.938;2022-08-06T02:05:19;12.10;99.90
12436;DHT22;6282;51.440;6.938;2022-08-06T02:07:49;12.10;99.90
12436;DHT22;6282;51.440;6.938;2022-08-06T02:13:41;12.30;99.90
12436;DHT22;6282;51.440;6.938;2022-08-06T02:16:09;12.40;99.90
12436;DHT22;6282;51.440;6.938;2022-08-06T02:18:40;12.20;99.90
12436;DHT22;6282;51.440;6.938;2022-08-06T02:21:10;12.10;99.90
12436;DHT22;6282;51.440;6.938;2022-08-06T02:23:39;12.10;99.90
12436;DHT22;6282;51.440;6.938;2022-08-06T02:26:08;12.10;99.90
12436;DHT22;6282;51.440;6.938;2022-08-06T02:28:36;12.30;99.90
12436;DHT22;6282;51.440;6.938;2022-08-06T02:31:06;12.10;99.90
12436;DHT22;6282;51.440;6.938;2022-08-06T02:33:32;11.90;99.90
12436;DHT22;6282;51.440;6.938;2022-08-06T02:36:03;12.20;99.90
12436;DHT22;6282;51.440;6.938;2022-08-06T02:38:35;12.00;99.90
12436;DHT22;6282;51.440;6.938;2022-08-06T02:41:10;12.10;99.90
12436;DHT22;6282;51.440;6.938;2022-08-06T02:43:40;12.00;99.90
12436;DHT22;6282;51.440;6.938;2022-08-06T02:46:14;11.90;99.90
12436;DHT22;6282;51.440;6.938;2022-08-06T02:48:47;11.80;99.90
12436;DHT22;6282;51.440;6.938;2022-08-06T02:51:19;11.60;99.90
12436;DHT22;6282;51.440;6.938;2022-08-06T02:53:56;11.80;99.90
12436;DHT22;6282;51.440;6.938;2022-08-06T02:56:23;11.80;99.90
12436;DHT22;6282;51.440;6.938;2022-08-06T02:58:52;11.90;99.90
12436;DHT22;6282;51.440;6.938;2022-08-06T03:01:23;11.80;99.90
12436;DHT22;6282;51.440;6.938;2022-08-06T03:03:54;11.80;99.90
12436;DHT22;6282;51.440;6.938;2022-08-06T03:06:24;11.90;99.90
12436;DHT22;6282;51.440;6.938;2022-08-06T03:08:53;11.90;99.90
12436;DHT22;6282;51.440;6.938;2022-08-06T03:11:22;11.80;99.90
12436;DHT22;6282;51.440;6.938;2022-08-06T03:13:50;11.80;99.90
12436;DHT22;6282;51.440;6.938;2022-08-06T03:16:19;11.80;99.90
12436;DHT22;6282;51.440;6.938;2022-08-06T03:18:48;11.80;99.90
12436;DHT22;6282;51.440;6.938;2022-08-06T03:21:16;11.70;99.90
12436;DHT22;6282;51.440;6.938;2022-08-06T03:23:47;11.80;99.90
12436;DHT22;6282;51.440;6.938;2022-08-06T03:26:14;11.70;99.90
12436;DHT22;6282;51.440;6.938;2022-08-06T03:28:41;11.60;99.90
12436;DHT22;6282;51.440;6.938;2022-08-06T03:31:09;11.60;99.90
12436;DHT22;6282;51.440;6.938;2022-08-06T03:33:37;11.60;99.90
12436;DHT22;6282;51.440;6.938;2022-08-06T03:36:06;11.60;99.90
12436;DHT22;6282;51.440;6.938;2022-08-06T03:38:38;11.60;99.90
12436;DHT22;6282;51.440;6.938;2022-08-06T03:41:07;11.70;99.90
12436;DHT22;6282;51.440;6.938;2022-08-06T03:43:34;11.70;99.90
12436;DHT22;6282;51.440;6.938;2022-08-06T03:46:05;11.60;99.90
12436;DHT22;6282;51.440;6.938;2022-08-06T03:48:37;11.60;99.90
12436;DHT22;6282;51.440;6.938;2022-08-06T03:51:10;11.60;99.90
12436;DHT22;6282;51.440;6.938;2022-08-06T03:53:39;11.50;99.90
12436;DHT22;6282;51.440;6.938;2022-08-06T03:56:07;11.50;99.90
12436;DHT22;6282;51.440;6.938;2022-08-06T03:58:37;11.40;99.90
12436;DHT22;6282;51.440;6.938;2022-08-06T04:01:07;11.60;99.90
12436;DHT22;6282;51.440;6.938;2022-08-06T04:03:36;11.60;99.90
12436;DHT22;6282;51.440;6.938;2022-08-06T04:06:06;11.50;99.90
12436;DHT22;6282;51.440;6.938;2022-08-06T04:08:35;11.50;99.90
12436;DHT22;6282;51.440;6.938;2022-08-06T04:11:02;11.60;99.90
12436;DHT22;6282;51.440;6.938;2022-08-06T04:13:30;11.50;99.90
12436;DHT22;6282;51.440;6.938;2022-08-06T04:15:57;11.60;99.90
12436;DHT22;6282;51.440;6.938;2022-08-06T04:18:27;11.70;99.90
12436;DHT22;6282;51.440;6.938;2022-08-06T04:20:57;11.80;99.90
12436;DHT22;6282;51.440;6.938;2022-08-06T04:23:26;11.70;99.90
12436;DHT22;6282;51.440;6.938;2022-08-06T04:25:55;11.60;99.90
12436;DHT22;6282;51.440;6.938;2022-08-06T04:28:24;11.60;99.90
12436;DHT22;6282;51.440;6.938;2022-08-06T04:30:54;11.70;99.90
12436;DHT22;6282;51.440;6.938;2022-08-06T04:33:24;11.50;99.90
12436;DHT22;6282;51.440;6.938;2022-08-06T04:35:52;11.60;99.90
12436;DHT22;6282;51.440;6.938;2022-08-06T04:38:21;11.40;99.90
12436;DHT22;6282;51.440;6.938;2022-08-06T04:40:50;11.30;99.90
12436;DHT22;6282;51.440;6.938;2022-08-06T04:43:18;11.30;99.90
12436;DHT22;6282;51.440;6.938;2022-08-06T04:45:46;11.30;99.90
12436;DHT22;6282;51.440;6.938;2022-08-06T04:48:14;11.40;99.90
12436;DHT22;6282;51.440;6.938;2022-08-06T04:50:42;11.50;99.90
12436;DHT22;6282;51.440;6.938;2022-08-06T04:53:10;11.60;99.90
12436;DHT22;6282;51.440;6.938;2022-08-06T04:55:38;11.60;99.90
12436;DHT22;6282;51.440;6.938;2022-08-06T04:58:09;11.80;99.90
12436;DHT22;6282;51.440;6.938;2022-08-06T05:00:37;11.80;99.90
12436;DHT22;6282;51.440;6.938;2022-08-06T05:03:05;11.90;99.90
12436;DHT22;6282;51.440;6.938;2022-08-06T05:05:37;11.80;99.90
12436;DHT22;6282;51.440;6.938;2022-08-06T05:08:05;11.70;99.90
12436;DHT22;6282;51.440;6.938;2022-08-06T05:10:37;11.80;99.90
12436;DHT22;6282;51.440;6.938;2022-08-06T05:13:10;11.80;99.90
12436;DHT22;6282;51.440;6.938;2022-08-06T05:15:41;12.00;99.90
12436;DHT22;6282;51.440;6.938;2022-08-06T05:18:10;12.10;99.90
12436;DHT22;6282;51.440;6.938;2022-08-06T05:20:40;12.10;99.90
12436;DHT22;6282;51.440;6.938;2022-08-06T05:23:11;12.20;99.90
12436;DHT22;6282;51.440;6.938;2022-08-06T05:25:38;12.40;99.90
12436;DHT22;6282;51.440;6.938;2022-08-06T05:28:07;12.50;99.90
12436;DHT22;6282;51.440;6.938;2022-08-06T05:30:41;12.40;99.90
12436;DHT22;6282;51.440;6.938;2022-08-06T05:33:08;12.70;99.90
12436;DHT22;6282;51.440;6.938;2022-08-06T05:35:35;12.90;99.90
12436;DHT22;6282;51.440;6.938;2022-08-06T05:38:02;12.90;99.90
12436;DHT22;6282;51.440;6.938;2022-08-06T05:40:29;13.10;99.90
12436;DHT22;6282;51.440;6.938;2022-08-06T05:42:59;13.10;99.90
12436;DHT22;6282;51.440;6.938;2022-08-06T05:45:27;13.20;99.90
12436;DHT22;6282;51.440;6.938;2022-08-06T05:47:56;13.30;99.90
12436;DHT22;6282;51.440;6.938;2022-08-06T05:50:28;13.30;99.90
12436;DHT22;6282;51.440;6.938;2022-08-06T05:53:01;13.60;99.90
12436;DHT22;6282;51.440;6.938;2022-08-06T05:55:34;13.60;99.90
12436;DHT22;6282;51.440;6.938;2022-08-06T05:58:05;13.70;99.90
12436;DHT22;6282;51.440;6.938;2022-08-06T06:00:35;13.80;99.90
12436;DHT22;6282;51.440;6.938;2022-08-06T06:03:05;13.90;99.90
12436;DHT22;6282;51.440;6.938;2022-08-06T06:05:33;14.20;99.90
12436;DHT22;6282;51.440;6.938;2022-08-06T06:08:00;14.10;99.90
12436;DHT22;6282;51.440;6.938;2022-08-06T06:10:28;14.20;99.90
12436;DHT22;6282;51.440;6.938;2022-08-06T06:12:55;14.20;99.90
12436;DHT22;6282;51.440;6.938;2022-08-06T06:15:23;14.30;99.90
12436;DHT22;6282;51.440;6.938;2022-08-06T06:18:05;14.50;99.90
12436;DHT22;6282;51.440;6.938;2022-08-06T06:20:44;14.60;99.90
12436;DHT22;6282;51.440;6.938;2022-08-06T06:23:17;14.70;99.90
12436;DHT22;6282;51.440;6.938;2022-08-06T06:25:49;14.70;99.90
12436;DHT22;6282;51.440;6.938;2022-08-06T06:28:30;15.00;99.90
12436;DHT22;6282;51.440;6.938;2022-08-06T06:31:03;14.80;99.90
12436;DHT22;6282;51.440;6.938;2022-08-06T06:33:39;15.00;99.90
12436;DHT22;6282;51.440;6.938;2022-08-06T06:36:18;15.00;99.90
12436;DHT22;6282;51.440;6.938;2022-08-06T06:38:53;15.10;99.90
12436;DHT22;6282;51.440;6.938;2022-08-06T06:41:28;15.00;99.90
12436;DHT22;6282;51.440;6.938;2022-08-06T06:44:02;15.00;99.90
12436;DHT22;6282;51.440;6.938;2022-08-06T06:46:34;15.10;99.90
12436;DHT22;6282;51.440;6.938;2022-08-06T06:49:13;15.20;99.90
12436;DHT22;6282;51.440;6.938;2022-08-06T06:51:43;15.30;99.90
12436;DHT22;6282;51.440;6.938;2022-08-06T06:54:16;15.50;99.90
12436;DHT22;6282;51.440;6.938;2022-08-06T06:56:47;15.40;99.90
12436;DHT22;6282;51.440;6.938;2022-08-06T06:59:18;15.40;1.00
12436;DHT22;6282;51.440;6.938;2022-08-06T07:01:47;15.60;99.90
12436;DHT22;6282;51.440;6.938;2022-08-06T07:04:18;15.70;99.90
12436;DHT22;6282;51.440;6.938;2022-08-06T07:06:45;16.00;1.00
12436;DHT22;6282;51.440;6.938;2022-08-06T07:09:22;16.40;1.00
12436;DHT22;6282;51.440;6.938;2022-08-06T07:11:52;18.70;99.90
12436;DHT22;6282;51.440;6.938;2022-08-06T07:14:21;19.90;1.00
12436;DHT22;6282;51.440;6.938;2022-08-06T07:16:50;20.00;99.90
12436;DHT22;6282;51.440;6.938;2022-08-06T07:19:23;20.40;99.90
12436;DHT22;6282;51.440;6.938;2022-08-06T07:21:51;20.50;57.80
12436;DHT22;6282;51.440;6.938;2022-08-06T07:24:20;20.90;1.00
12436;DHT22;6282;51.440;6.938;2022-08-06T07:26:50;20.90;1.00
12436;DHT22;6282;51.440;6.938;2022-08-06T07:29:19;21.00;1.00
12436;DHT22;6282;51.440;6.938;2022-08-06T07:31:46;21.40;1.00
12436;DHT22;6282;51.440;6.938;2022-08-06T07:34:14;21.70;1.00
12436;DHT22;6282;51.440;6.938;2022-08-06T07:36:47;22.50;1.00
12436;DHT22;6282;51.440;6.938;2022-08-06T07:39:17;22.50;1.00
12436;DHT22;6282;51.440;6.938;2022-08-06T07:41:51;22.60;1.00
12436;DHT22;6282;51.440;6.938;2022-08-06T07:44:20;22.30;1.00
12436;DHT22;6282;51.440;6.938;2022-08-06T07:46:47;22.20;99.90
12436;DHT22;6282;51.440;6.938;2022-08-06T07:49:19;22.30;99.90
12436;DHT22;6282;51.440;6.938;2022-08-06T07:51:49;23.20;99.90
12436;DHT22;6282;51.440;6.938;2022-08-06T07:54:18;22.90;99.90
12436;DHT22;6282;51.440;6.938;2022-08-06T07:56:46;23.60;99.90
12436;DHT22;6282;51.440;6.938;2022-08-06T07:59:14;23.50;99.90
12436;DHT22;6282;51.440;6.938;2022-08-06T08:01:42;23.10;99.90
12436;DHT22;6282;51.440;6.938;2022-08-06T08:04:10;23.10;99.90
12436;DHT22;6282;51.440;6.938;2022-08-06T08:07:00;23.10;99.90
12436;DHT22;6282;51.440;6.938;2022-08-06T08:09:28;23.20;99.90
12436;DHT22;6282;51.440;6.938;2022-08-06T08:11:57;23.00;99.90
12436;DHT22;6282;51.440;6.938;2022-08-06T08:14:24;23.70;99.90
12436;DHT22;6282;51.440;6.938;2022-08-06T08:16:52;23.50;99.90
12436;DHT22;6282;51.440;6.938;2022-08-06T08:19:22;23.90;99.90
12436;DHT22;6282;51.440;6.938;2022-08-06T08:21:50;22.50;95.40
12436;DHT22;6282;51.440;6.938;2022-08-06T08:24:18;23.10;96.70
12436;DHT22;6282;51.440;6.938;2022-08-06T08:26:45;23.50;77.70
12436;DHT22;6282;51.440;6.938;2022-08-06T08:29:12;23.40;55.40
12436;DHT22;6282;51.440;6.938;2022-08-06T08:31:39;23.00;61.70
12436;DHT22;6282;51.440;6.938;2022-08-06T08:34:06;23.40;36.00
12436;DHT22;6282;51.440;6.938;2022-08-06T08:36:33;22.90;18.80
12436;DHT22;6282;51.440;6.938;2022-08-06T08:39:00;23.30;19.20
12436;DHT22;6282;51.440;6.938;2022-08-06T08:41:32;23.50;1.00
12436;DHT22;6282;51.440;6.938;2022-08-06T08:44:04;23.30;1.00
12436;DHT22;6282;51.440;6.938;2022-08-06T08:46:34;23.50;1.00
12436;DHT22;6282;51.440;6.938;2022-08-06T08:49:03;23.80;1.00
12436;DHT22;6282;51.440;6.938;2022-08-06T08:51:32;23.70;1.00
12436;DHT22;6282;51.440;6.938;2022-08-06T08:54:02;23.50;1.00
12436;DHT22;6282;51.440;6.938;2022-08-06T08:56:33;23.80;1.00
12436;DHT22;6282;51.440;6.938;2022-08-06T08:59:01;22.10;1.00
12436;DHT22;6282;51.440;6.938;2022-08-06T09:01:28;22.40;1.00
12436;DHT22;6282;51.440;6.938;2022-08-06T09:03:55;22.70;1.00
12436;DHT22;6282;51.440;6.938;2022-08-06T09:06:22;23.60;1.00
12436;DHT22;6282;51.440;6.938;2022-08-06T09:08:50;23.80;1.00
12436;DHT22;6282;51.440;6.938;2022-08-06T09:11:17;24.40;1.00
12436;DHT22;6282;51.440;6.938;2022-08-06T09:13:46;23.60;1.00
12436;DHT22;6282;51.440;6.938;2022-08-06T09:16:13;22.30;1.00
12436;DHT22;6282;51.440;6.938;2022-08-06T09:18:40;21.80;1.00
12436;DHT22;6282;51.440;6.938;2022-08-06T09:21:07;20.80;1.00
12436;DHT22;6282;51.440;6.938;2022-08-06T09:23:37;20.90;1.00
12436;DHT22;6282;51.440;6.938;2022-08-06T09:26:05;21.30;1.00
12436;DHT22;6282;51.440;6.938;2022-08-06T09:28:36;20.90;1.00
12436;DHT22;6282;51.440;6.938;2022-08-06T09:31:07;21.30;1.00
12436;DHT22;6282;51.440;6.938;2022-08-06T09:33:38;22.50;1.00
12436;DHT22;6282;51.440;6.938;2022-08-06T09:36:07;23.00;1.00
12436;DHT22;6282;51.440;6.938;2022-08-06T09:38:46;23.40;1.00
12436;DHT22;6282;51.440;6.938;2022-08-06T09:41:14;23.40;1.00
12436;DHT22;6282;51.440;6.938;2022-08-06T09:43:42;22.90;1.00
12436;DHT22;6282;51.440;6.938;2022-08-06T09:46:11;22.60;1.00
12436;DHT22;6282;51.440;6.938;2022-08-06T09:48:56;22.80;1.00
12436;DHT22;6282;51.440;6.938;2022-08-06T09:51:23;23.90;1.00
12436;DHT22;6282;51.440;6.938;2022-08-06T09:53:54;23.50;1.00
12436;DHT22;6282;51.440;6.938;2022-08-06T09:56:21;22.70;1.00
12436;DHT22;6282;51.440;6.938;2022-08-06T09:58:49;22.50;1.00
12436;DHT22;6282;51.440;6.938;2022-08-06T10:01:18;22.60;1.00
12436;DHT22;6282;51.440;6.938;2022-08-06T10:03:46;22.40;1.00
12436;DHT22;6282;51.440;6.938;2022-08-06T10:06:14;22.70;1.00
12436;DHT22;6282;51.440;6.938;2022-08-06T10:08:43;22.40;1.00
12436;DHT22;6282;51.440;6.938;2022-08-06T10:11:10;22.80;1.00
12436;DHT22;6282;51.440;6.938;2022-08-06T10:13:37;22.80;1.00
12436;DHT22;6282;51.440;6.938;2022-08-06T10:16:24;22.80;1.00
12436;DHT22;6282;51.440;6.938;2022-08-06T10:18:52;22.10;1.00
12436;DHT22;6282;51.440;6.938;2022-08-06T10:21:21;22.00;1.00
12436;DHT22;6282;51.440;6.938;2022-08-06T10:23:50;22.50;1.00
12436;DHT22;6282;51.440;6.938;2022-08-06T10:26:25;22.80;1.00
12436;DHT22;6282;51.440;6.938;2022-08-06T10:28:53;22.20;1.00
12436;DHT22;6282;51.440;6.938;2022-08-06T10:31:21;21.10;1.00
12436;DHT22;6282;51.440;6.938;2022-08-06T10:33:51;20.80;1.00
12436;DHT22;6282;51.440;6.938;2022-08-06T10:36:22;21.30;1.00
12436;DHT22;6282;51.440;6.938;2022-08-06T10:38:52;21.80;1.00
12436;DHT22;6282;51.440;6.938;2022-08-06T10:41:20;21.30;1.00
12436;DHT22;6282;51.440;6.938;2022-08-06T10:43:48;21.50;1.00
12436;DHT22;6282;51.440;6.938;2022-08-06T10:46:16;21.90;1.00
12436;DHT22;6282;51.440;6.938;2022-08-06T10:48:44;21.60;1.00
12436;DHT22;6282;51.440;6.938;2022-08-06T10:51:14;21.00;1.00
12436;DHT22;6282;51.440;6.938;2022-08-06T10:53:43;20.90;1.00
12436;DHT22;6282;51.440;6.938;2022-08-06T10:56:11;20.80;1.00
12436;DHT22;6282;51.440;6.938;2022-08-06T10:58:39;21.30;1.00
12436;DHT22;6282;51.440;6.938;2022-08-06T11:01:08;21.10;1.00
12436;DHT22;6282;51.440;6.938;2022-08-06T11:03:41;21.70;1.00
12436;DHT22;6282;51.440;6.938;2022-08-06T11:06:33;21.20;1.00
12436;DHT22;6282;51.440;6.938;2022-08-06T11:09:14;21.40;1.00
12436;DHT22;6282;51.440;6.938;2022-08-06T11:11:53;21.30;1.00
12436;DHT22;6282;51.440;6.938;2022-08-06T11:14:21;20.60;1.00
12436;DHT22;6282;51.440;6.938;2022-08-06T11:16:55;20.80;1.00
12436;DHT22;6282;51.440;6.938;2022-08-06T11:19:41;20.80;1.00
12436;DHT22;6282;51.440;6.938;2022-08-06T11:22:33;21.20;1.00
12436;DHT22;6282;51.440;6.938;2022-08-06T11:25:00;21.40;1.00
12436;DHT22;6282;51.440;6.938;2022-08-06T11:27:47;20.60;1.00
12436;DHT22;6282;51.440;6.938;2022-08-06T11:30:15;21.10;1.00
12436;DHT22;6282;51.440;6.938;2022-08-06T11:32:43;21.10;1.00
12436;DHT22;6282;51.440;6.938;2022-08-06T11:35:39;21.20;1.00
12436;DHT22;6282;51.440;6.938;2022-08-06T11:38:08;21.90;1.00
12436;DHT22;6282;51.440;6.938;2022-08-06T11:40:55;21.60;1.00
12436;DHT22;6282;51.440;6.938;2022-08-06T11:43:48;21.30;1.00
12436;DHT22;6282;51.440;6.938;2022-08-06T11:46:22;21.30;1.00
12436;DHT22;6282;51.440;6.938;2022-08-06T11:49:15;20.80;1.00
12436;DHT22;6282;51.440;6.938;2022-08-06T11:51:43;21.10;1.00
12436;DHT22;6282;51.440;6.938;2022-08-06T11:54:14;21.40;1.00
12436;DHT22;6282;51.440;6.938;2022-08-06T11:57:19;21.60;1.00
12436;DHT22;6282;51.440;6.938;2022-08-06T12:00:05;21.40;1.00
12436;DHT22;6282;51.440;6.938;2022-08-06T12:02:57;21.20;1.00
12436;DHT22;6282;51.440;6.938;2022-08-06T12:05:43;21.10;1.00
12436;DHT22;6282;51.440;6.938;2022-08-06T12:08:21;21.00;1.00
12436;DHT22;6282;51.440;6.938;2022-08-06T12:11:27;21.00;1.00
12436;DHT22;6282;51.440;6.938;2022-08-06T12:13:56;21.10;1.00
12436;DHT22;6282;51.440;6.938;2022-08-06T12:16:35;21.00;1.00
12436;DHT22;6282;51.440;6.938;2022-08-06T12:19:04;21.30;1.00
12436;DHT22;6282;51.440;6.938;2022-08-06T12:21:33;21.20;1.00
12436;DHT22;6282;51.440;6.938;2022-08-06T12:24:00;21.20;1.00
12436;DHT22;6282;51.440;6.938;2022-08-06T12:26:31;21.50;1.00
12436;DHT22;6282;51.440;6.938;2022-08-06T12:29:04;21.70;1.00
12436;DHT22;6282;51.440;6.938;2022-08-06T12:31:35;21.40;1.00
12436;DHT22;6282;51.440;6.938;2022-08-06T12:34:02;21.20;1.00
12436;DHT22;6282;51.440;6.938;2022-08-06T12:36:31;21.10;1.00
12436;DHT22;6282;51.440;6.938;2022-08-06T12:38:59;21.00;1.00
12436;DHT22;6282;51.440;6.938;2022-08-06T12:41:38;20.90;1.00
12436;DHT22;6282;51.440;6.938;2022-08-06T12:44:08;20.70;1.00
12436;DHT22;6282;51.440;6.938;2022-08-06T12:46:34;21.10;1.00
12436;DHT22;6282;51.440;6.938;2022-08-06T12:49:01;21.10;1.00
12436;DHT22;6282;51.440;6.938;2022-08-06T12:51:29;21.10;1.00
12436;DHT22;6282;51.440;6.938;2022-08-06T12:53:59;21.10;1.00
12436;DHT22;6282;51.440;6.938;2022-08-06T12:56:28;21.20;1.00
12436;DHT22;6282;51.440;6.938;2022-08-06T12:58:57;21.60;1.00
12436;DHT22;6282;51.440;6.938;2022-08-06T13:01:28;21.30;1.00
12436;DHT22;6282;51.440;6.938;2022-08-06T13:03:57;21.10;1.00
12436;DHT22;6282;51.440;6.938;2022-08-06T13:06:27;21.30;1.00
12436;DHT22;6282;51.440;6.938;2022-08-06T13:08:55;21.20;1.00
12436;DHT22;6282;51.440;6.938;2022-08-06T13:11:29;21.30;1.00
12436;DHT22;6282;51.440;6.938;2022-08-06T13:13:58;21.30;1.00
12436;DHT22;6282;51.440;6.938;2022-08-06T13:16:37;21.80;1.00
12436;DHT22;6282;51.440;6.938;2022-08-06T13:19:06;21.80;1.00
12436;DHT22;6282;51.440;6.938;2022-08-06T13:21:33;21.70;1.00
12436;DHT22;6282;51.440;6.938;2022-08-06T13:24:02;21.80;1.00
12436;DHT22;6282;51.440;6.938;2022-08-06T13:26:31;22.20;1.00
12436;DHT22;6282;51.440;6.938;2022-08-06T13:29:10;22.70;1.00
12436;DHT22;6282;51.440;6.938;2022-08-06T13:31:39;22.80;1.00
12436;DHT22;6282;51.440;6.938;2022-08-06T13:34:08;22.50;1.00
12436;DHT22;6282;51.440;6.938;2022-08-06T13:36:38;22.10;1.00
12436;DHT22;6282;51.440;6.938;2022-08-06T13:39:19;21.80;1.00
12436;DHT22;6282;51.440;6.938;2022-08-06T13:41:47;21.90;1.00
12436;DHT22;6282;51.440;6.938;2022-08-06T13:44:32;21.80;1.00
12436;DHT22;6282;51.440;6.938;2022-08-06T13:46:59;21.70;1.00
12436;DHT22;6282;51.440;6.938;2022-08-06T13:49:26;22.00;1.00
12436;DHT22;6282;51.440;6.938;2022-08-06T13:51:53;21.60;1.00
12436;DHT22;6282;51.440;6.938;2022-08-06T13:54:20;21.70;1.00
12436;DHT22;6282;51.440;6.938;2022-08-06T13:56:48;21.60;1.00
12436;DHT22;6282;51.440;6.938;2022-08-06T13:59:15;21.80;1.00
12436;DHT22;6282;51.440;6.938;2022-08-06T14:01:44;22.20;1.00
12436;DHT22;6282;51.440;6.938;2022-08-06T14:04:13;22.00;1.00
12436;DHT22;6282;51.440;6.938;2022-08-06T14:06:41;22.20;1.00
12436;DHT22;6282;51.440;6.938;2022-08-06T14:09:08;22.10;1.00
12436;DHT22;6282;51.440;6.938;2022-08-06T14:11:34;22.00;1.00
12436;DHT22;6282;51.440;6.938;2022-08-06T14:14:01;22.30;1.00
12436;DHT22;6282;51.440;6.938;2022-08-06T14:16:28;22.20;1.00
12436;DHT22;6282;51.440;6.938;2022-08-06T14:18:56;22.10;1.00
12436;DHT22;6282;51.440;6.938;2022-08-06T14:21:23;22.00;1.00
12436;DHT22;6282;51.440;6.938;2022-08-06T14:23:50;22.10;1.00
12436;DHT22;6282;51.440;6.938;2022-08-06T14:26:17;22.00;1.00
12436;DHT22;6282;51.440;6.938;2022-08-06T14:28:44;22.40;1.00
12436;DHT22;6282;51.440;6.938;2022-08-06T14:31:11;22.50;1.00
12436;DHT22;6282;51.440;6.938;2022-08-06T14:33:37;22.80;1.00
12436;DHT22;6282;51.440;6.938;2022-08-06T14:36:10;22.80;1.00
12436;DHT22;6282;51.440;6.938;2022-08-06T14:38:36;23.10;1.00
12436;DHT22;6282;51.440;6.938;2022-08-06T14:41:05;22.90;1.00
12436;DHT22;6282;51.440;6.938;2022-08-06T14:43:50;22.20;1.00
12436;DHT22;6282;51.440;6.938;2022-08-06T14:46:34;22.20;1.00
12436;DHT22;6282;51.440;6.938;2022-08-06T14:49:02;22.00;1.00
12436;DHT22;6282;51.440;6.938;2022-08-06T14:51:30;21.80;1.00
12436;DHT22;6282;51.440;6.938;2022-08-06T14:53:57;21.80;1.00
12436;DHT22;6282;51.440;6.938;2022-08-06T14:56:24;21.60;1.00
12436;DHT22;6282;51.440;6.938;2022-08-06T14:58:51;21.50;1.00
12436;DHT22;6282;51.440;6.938;2022-08-06T15:01:18;21.50;1.00
12436;DHT22;6282;51.440;6.938;2022-08-06T15:03:45;21.50;1.00
12436;DHT22;6282;51.440;6.938;2022-08-06T15:06:12;21.80;1.00
12436;DHT22;6282;51.440;6.938;2022-08-06T15:08:40;21.70;1.00
12436;DHT22;6282;51.440;6.938;2022-08-06T15:11:07;21.90;1.00
12436;DHT22;6282;51.440;6.938;2022-08-06T15:13:34;21.80;1.00
12436;DHT22;6282;51.440;6.938;2022-08-06T15:16:01;21.80;1.00
12436;DHT22;6282;51.440;6.938;2022-08-06T15:18:28;21.60;1.00
12436;DHT22;6282;51.440;6.938;2022-08-06T15:20:54;21.60;1.00
12436;DHT22;6282;51.440;6.938;2022-08-06T15:23:22;21.70;1.00
12436;DHT22;6282;51.440;6.938;2022-08-06T15:25:50;22.00;1.00
12436;DHT22;6282;51.440;6.938;2022-08-06T15:28:17;22.10;1.00
12436;DHT22;6282;51.440;6.938;2022-08-06T15:30:44;21.90;1.00
12436;DHT22;6282;51.440;6.938;2022-08-06T15:33:10;22.20;1.00
12436;DHT22;6282;51.440;6.938;2022-08-06T15:35:38;22.30;1.00
12436;DHT22;6282;51.440;6.938;2022-08-06T15:38:07;22.20;1.00
12436;DHT22;6282;51.440;6.938;2022-08-06T15:40:34;22.00;1.00
12436;DHT22;6282;51.440;6.938;2022-08-06T15:43:03;21.90;1.00
12436;DHT22;6282;51.440;6.938;2022-08-06T15:45:29;22.20;1.00
12436;DHT22;6282;51.440;6.938;2022-08-06T15:47:56;22.30;1.00
12436;DHT22;6282;51.440;6.938;2022-08-06T15:50:24;22.20;1.00
12436;DHT22;6282;51.440;6.938;2022-08-06T15:52:51;22.40;1.00
12436;DHT22;6282;51.440;6.938;2022-08-06T15:55:18;22.00;1.00
12436;DHT22;6282;51.440;6.938;2022-08-06T15:57:45;22.00;1.00
12436;DHT22;6282;51.440;6.938;2022-08-06T16:00:14;22.10;1.00
12436;DHT22;6282;51.440;6.938;2022-08-06T16:02:41;22.20;1.00
12436;DHT22;6282;51.440;6.938;2022-08-06T16:05:08;22.50;1.00
12436;DHT22;6282;51.440;6.938;2022-08-06T16:07:35;22.60;1.00
12436;DHT22;6282;51.440;6.938;2022-08-06T16:10:04;22.60;1.00
12436;DHT22;6282;51.440;6.938;2022-08-06T16:12:31;22.40;1.00
12436;DHT22;6282;51.440;6.938;2022-08-06T16:14:58;22.50;1.00
12436;DHT22;6282;51.440;6.938;2022-08-06T16:17:26;22.60;1.00
12436;DHT22;6282;51.440;6.938;2022-08-06T16:19:53;22.80;1.00
12436;DHT22;6282;51.440;6.938;2022-08-06T16:22:20;22.70;1.00